sensor_id;sensor_type;location;lat;lon;timestamp;P1;durP1;ratioP1;P2;durP2;ratioP2
75038;SDS011;63609;49.992;14.512;2024-02-23T00:01:52;1.27;;;0.82;;
75038;SDS011;63609;49.992;14.512;2024-02-23T00:04:19;1.33;;;0.75;;
75038;SDS011;63609;49.992;14.512;2024-02-23T00:06:46;1.55;;;0.93;;
75038;SDS011;63609;49.992;14.512;2024-02-23T00:09:13;1.45;;;0.70;;
75038;SDS011;63609;49.992;14.512;2024-02-23T00:11:40;1.58;;;1.00;;
75038;SDS011;63609;49.992;14.512;2024-02-23T00:14:11;1.60;;;0.88;;
75038;SDS011;63609;49.992;14.512;2024-02-23T00:16:38;1.15;;;0.75;;
75038;SDS011;63609;49.992;14.512;2024-02-23T00:19:09;1.25;;;0.75;;
75038;SDS011;63609;49.992;14.512;2024-02-23T00:21:37;1.45;;;0.65;;
75038;SDS011;63609;49.992;14.512;2024-02-23T00:24:05;1.58;;;0.90;;
75038;SDS011;63609;49.992;14.512;2024-02-23T00:26:32;5.22;;;0.82;;
75038;SDS011;63609;49.992;14.512;2024-02-23T00:28:59;3.13;;;1.15;;
75038;SDS011;63609;49.992;14.512;2024-02-23T00:31:26;1.50;;;0.88;;
75038;SDS011;63609;49.992;14.512;2024-02-23T00:33:52;2.08;;;0.77;;
75038;SDS011;63609;49.992;14.512;2024-02-23T00:36:19;2.05;;;0.93;;
75038;SDS011;63609;49.992;14.512;2024-02-23T00:38:46;1.30;;;0.70;;
75038;SDS011;63609;49.992;14.512;2024-02-23T00:41:13;1.98;;;0.82;;
75038;SDS011;63609;49.992;14.512;2024-02-23T00:43:40;1.13;;;0.70;;
75038;SDS011;63609;49.992;14.512;2024-02-23T00:46:08;0.88;;;0.60;;
75038;SDS011;63609;49.992;14.512;2024-02-23T00:48:36;1.50;;;0.70;;
75038;SDS011;63609;49.992;14.512;2024-02-23T00:51:03;1.80;;;1.00;;
75038;SDS011;63609;49.992;14.512;2024-02-23T00:53:30;2.28;;;0.80;;
75038;SDS011;63609;49.992;14.512;2024-02-23T00:55:58;1.30;;;0.70;;
75038;SDS011;63609;49.992;14.512;2024-02-23T00:58:25;1.92;;;0.65;;
75038;SDS011;63609;49.992;14.512;2024-02-23T01:03:30;2.70;;;0.70;;
75038;SDS011;63609;49.992;14.512;2024-02-23T01:05:57;0.93;;;0.60;;
75038;SDS011;63609;49.992;14.512;2024-02-23T01:08:24;1.02;;;0.65;;
75038;SDS011;63609;49.992;14.512;2024-02-23T01:10:51;1.73;;;0.80;;
75038;SDS011;63609;49.992;14.512;2024-02-23T01:13:18;1.00;;;0.70;;
75038;SDS011;63609;49.992;14.512;2024-02-23T01:15:45;1.50;;;0.70;;
75038;SDS011;63609;49.992;14.512;2024-02-23T01:18:12;1.25;;;0.77;;
75038;SDS011;63609;49.992;14.512;2024-02-23T01:20:39;1.80;;;0.60;;
75038;SDS011;63609;49.992;14.512;2024-02-23T01:23:06;1.75;;;0.70;;
75038;SDS011;63609;49.992;14.512;2024-02-23T01:25:33;1.63;;;0.63;;
75038;SDS011;63609;49.992;14.512;2024-02-23T01:28:02;1.50;;;0.50;;
75038;SDS011;63609;49.992;14.512;2024-02-23T01:30:29;1.90;;;0.70;;
75038;SDS011;63609;49.992;14.512;2024-02-23T01:32:56;0.73;;;0.43;;
75038;SDS011;63609;49.992;14.512;2024-02-23T01:35:24;1.90;;;0.93;;
75038;SDS011;63609;49.992;14.512;2024-02-23T01:37:50;1.52;;;0.60;;
75038;SDS011;63609;49.992;14.512;2024-02-23T01:40:17;2.10;;;0.80;;
75038;SDS011;63609;49.992;14.512;2024-02-23T01:42:46;2.15;;;0.80;;
75038;SDS011;63609;49.992;14.512;2024-02-23T01:45:12;1.10;;;0.60;;
75038;SDS011;63609;49.992;14.512;2024-02-23T01:47:39;1.52;;;0.70;;
75038;SDS011;63609;49.992;14.512;2024-02-23T01:50:06;0.57;;;0.40;;
75038;SDS011;63609;49.992;14.512;2024-02-23T01:52:35;0.90;;;0.60;;
75038;SDS011;63609;49.992;14.512;2024-02-23T01:55:02;1.55;;;0.68;;
75038;SDS011;63609;49.992;14.512;2024-02-23T01:57:29;1.10;;;0.47;;
75038;SDS011;63609;49.992;14.512;2024-02-23T02:00:15;1.67;;;0.60;;
75038;SDS011;63609;49.992;14.512;2024-02-23T02:02:50;1.08;;;0.50;;
75038;SDS011;63609;49.992;14.512;2024-02-23T02:05:18;0.65;;;0.40;;
75038;SDS011;63609;49.992;14.512;2024-02-23T02:07:46;0.85;;;0.40;;
75038;SDS011;63609;49.992;14.512;2024-02-23T02:10:17;1.40;;;0.60;;
75038;SDS011;63609;49.992;14.512;2024-02-23T02:12:44;2.03;;;0.73;;
75038;SDS011;63609;49.992;14.512;2024-02-23T02:15:11;0.80;;;0.40;;
75038;SDS011;63609;49.992;14.512;2024-02-23T02:17:37;0.82;;;0.40;;
75038;SDS011;63609;49.992;14.512;2024-02-23T02:20:05;1.73;;;0.57;;
75038;SDS011;63609;49.992;14.512;2024-02-23T02:22:37;0.80;;;0.40;;
75038;SDS011;63609;49.992;14.512;2024-02-23T02:25:05;1.15;;;0.50;;
75038;SDS011;63609;49.992;14.512;2024-02-23T02:27:32;0.70;;;0.40;;
75038;SDS011;63609;49.992;14.512;2024-02-23T02:29:59;1.08;;;0.40;;
75038;SDS011;63609;49.992;14.512;2024-02-23T02:32:26;1.02;;;0.60;;
75038;SDS011;63609;49.992;14.512;2024-02-23T02:34:53;1.02;;;0.50;;
75038;SDS011;63609;49.992;14.512;2024-02-23T02:37:20;0.95;;;0.45;;
75038;SDS011;63609;49.992;14.512;2024-02-23T02:39:47;0.60;;;0.30;;
75038;SDS011;63609;49.992;14.512;2024-02-23T02:42:14;0.70;;;0.32;;
75038;SDS011;63609;49.992;14.512;2024-02-23T02:44:41;0.70;;;0.35;;
75038;SDS011;63609;49.992;14.512;2024-02-23T02:47:08;1.38;;;0.60;;
75038;SDS011;63609;49.992;14.512;2024-02-23T02:49:36;1.10;;;0.50;;
75038;SDS011;63609;49.992;14.512;2024-02-23T02:52:02;1.02;;;0.40;;
75038;SDS011;63609;49.992;14.512;2024-02-23T02:54:29;2.90;;;0.43;;
75038;SDS011;63609;49.992;14.512;2024-02-23T02:56:56;0.63;;;0.32;;
75038;SDS011;63609;49.992;14.512;2024-02-23T02:59:23;0.68;;;0.30;;
75038;SDS011;63609;49.992;14.512;2024-02-23T03:01:54;0.30;;;0.10;;
75038;SDS011;63609;49.992;14.512;2024-02-23T03:04:21;0.80;;;0.38;;
75038;SDS011;63609;49.992;14.512;2024-02-23T03:06:48;1.08;;;0.40;;
75038;SDS011;63609;49.992;14.512;2024-02-23T03:09:15;0.68;;;0.28;;
75038;SDS011;63609;49.992;14.512;2024-02-23T03:11:42;0.40;;;0.20;;
75038;SDS011;63609;49.992;14.512;2024-02-23T03:14:09;1.25;;;0.35;;
75038;SDS011;63609;49.992;14.512;2024-02-23T03:16:36;0.77;;;0.35;;
75038;SDS011;63609;49.992;14.512;2024-02-23T03:19:04;0.40;;;0.20;;
75038;SDS011;63609;49.992;14.512;2024-02-23T03:21:31;0.68;;;0.30;;
75038;SDS011;63609;49.992;14.512;2024-02-23T03:23:57;1.90;;;0.17;;
75038;SDS011;63609;49.992;14.512;2024-02-23T03:26:25;0.47;;;0.30;;
75038;SDS011;63609;49.992;14.512;2024-02-23T03:28:52;0.20;;;0.20;;
75038;SDS011;63609;49.992;14.512;2024-02-23T03:31:19;0.30;;;0.10;;
75038;SDS011;63609;49.992;14.512;2024-02-23T03:36:12;0.45;;;0.28;;
75038;SDS011;63609;49.992;14.512;2024-02-23T03:38:39;0.57;;;0.20;;
75038;SDS011;63609;49.992;14.512;2024-02-23T03:41:06;0.20;;;0.10;;
75038;SDS011;63609;49.992;14.512;2024-02-23T03:43:33;0.40;;;0.20;;
75038;SDS011;63609;49.992;14.512;2024-02-23T03:46:01;0.30;;;0.30;;
75038;SDS011;63609;49.992;14.512;2024-02-23T03:48:28;1.05;;;0.25;;
75038;SDS011;63609;49.992;14.512;2024-02-23T03:50:55;0.20;;;0.20;;
75038;SDS011;63609;49.992;14.512;2024-02-23T03:53:22;0.45;;;0.20;;
75038;SDS011;63609;49.992;14.512;2024-02-23T03:55:49;0.30;;;0.20;;
75038;SDS011;63609;49.992;14.512;2024-02-23T03:58:16;0.65;;;0.30;;
75038;SDS011;63609;49.992;14.512;2024-02-23T04:00:43;0.43;;;0.30;;
75038;SDS011;63609;49.992;14.512;2024-02-23T04:03:10;0.17;;;0.10;;
75038;SDS011;63609;49.992;14.512;2024-02-23T04:05:37;0.68;;;0.30;;
75038;SDS011;63609;49.992;14.512;2024-02-23T04:08:05;4.47;;;0.43;;
75038;SDS011;63609;49.992;14.512;2024-02-23T04:10:33;1.67;;;0.47;;
75038;SDS011;63609;49.992;14.512;2024-02-23T04:13:00;0.75;;;0.40;;
75038;SDS011;63609;49.992;14.512;2024-02-23T04:15:27;0.32;;;0.20;;
75038;SDS011;63609;49.992;14.512;2024-02-23T04:17:54;0.20;;;0.20;;
75038;SDS011;63609;49.992;14.512;2024-02-23T04:20:23;0.52;;;0.20;;
75038;SDS011;63609;49.992;14.512;2024-02-23T04:22:50;0.28;;;0.28;;
75038;SDS011;63609;49.992;14.512;2024-02-23T04:25:16;0.52;;;0.20;;
75038;SDS011;63609;49.992;14.512;2024-02-23T04:27:43;0.00;;;0.00;;
75038;SDS011;63609;49.992;14.512;2024-02-23T04:30:10;0.47;;;0.38;;
75038;SDS011;63609;49.992;14.512;2024-02-23T04:32:39;0.22;;;0.20;;
75038;SDS011;63609;49.992;14.512;2024-02-23T04:35:07;0.10;;;0.10;;
75038;SDS011;63609;49.992;14.512;2024-02-23T04:37:34;0.52;;;0.32;;
75038;SDS011;63609;49.992;14.512;2024-02-23T04:40:03;0.57;;;0.20;;
75038;SDS011;63609;49.992;14.512;2024-02-23T04:42:32;0.08;;;0.08;;
75038;SDS011;63609;49.992;14.512;2024-02-23T04:44:59;0.10;;;0.10;;
75038;SDS011;63609;49.992;14.512;2024-02-23T04:47:26;0.13;;;0.10;;
75038;SDS011;63609;49.992;14.512;2024-02-23T04:49:53;0.60;;;0.22;;
75038;SDS011;63609;49.992;14.512;2024-02-23T04:52:20;0.15;;;0.10;;
75038;SDS011;63609;49.992;14.512;2024-02-23T04:54:47;0.32;;;0.20;;
75038;SDS011;63609;49.992;14.512;2024-02-23T04:57:13;0.22;;;0.15;;
75038;SDS011;63609;49.992;14.512;2024-02-23T04:59:41;0.30;;;0.20;;
75038;SDS011;63609;49.992;14.512;2024-02-23T05:02:08;0.13;;;0.10;;
75038;SDS011;63609;49.992;14.512;2024-02-23T05:04:34;0.40;;;0.32;;
75038;SDS011;63609;49.992;14.512;2024-02-23T05:07:01;0.73;;;0.20;;
75038;SDS011;63609;49.992;14.512;2024-02-23T05:09:28;0.70;;;0.17;;
75038;SDS011;63609;49.992;14.512;2024-02-23T05:11:55;0.08;;;0.08;;
75038;SDS011;63609;49.992;14.512;2024-02-23T05:14:22;0.40;;;0.30;;
75038;SDS011;63609;49.992;14.512;2024-02-23T05:16:49;0.10;;;0.10;;
75038;SDS011;63609;49.992;14.512;2024-02-23T05:19:16;0.60;;;0.43;;
75038;SDS011;63609;49.992;14.512;2024-02-23T05:21:43;1.90;;;0.32;;
75038;SDS011;63609;49.992;14.512;2024-02-23T05:24:10;0.73;;;0.45;;
75038;SDS011;63609;49.992;14.512;2024-02-23T05:26:37;0.50;;;0.20;;
75038;SDS011;63609;49.992;14.512;2024-02-23T05:29:05;1.75;;;0.20;;
75038;SDS011;63609;49.992;14.512;2024-02-23T05:31:45;0.10;;;0.10;;
75038;SDS011;63609;49.992;14.512;2024-02-23T05:34:14;0.15;;;0.10;;
75038;SDS011;63609;49.992;14.512;2024-02-23T05:36:40;0.50;;;0.40;;
75038;SDS011;63609;49.992;14.512;2024-02-23T05:39:07;0.20;;;0.05;;
75038;SDS011;63609;49.992;14.512;2024-02-23T05:41:37;0.52;;;0.20;;
75038;SDS011;63609;49.992;14.512;2024-02-23T05:44:04;0.25;;;0.13;;
75038;SDS011;63609;49.992;14.512;2024-02-23T05:46:33;1.05;;;0.38;;
75038;SDS011;63609;49.992;14.512;2024-02-23T05:49:03;2.30;;;0.40;;
75038;SDS011;63609;49.992;14.512;2024-02-23T05:51:32;0.90;;;0.45;;
75038;SDS011;63609;49.992;14.512;2024-02-23T05:54:00;1.05;;;0.35;;
75038;SDS011;63609;49.992;14.512;2024-02-23T05:56:27;3.70;;;0.50;;
75038;SDS011;63609;49.992;14.512;2024-02-23T05:58:54;1.33;;;0.57;;
75038;SDS011;63609;49.992;14.512;2024-02-23T06:01:21;1.13;;;0.57;;
75038;SDS011;63609;49.992;14.512;2024-02-23T06:06:16;2.05;;;0.40;;
75038;SDS011;63609;49.992;14.512;2024-02-23T06:08:46;0.95;;;0.40;;
75038;SDS011;63609;49.992;14.512;2024-02-23T06:13:39;0.17;;;0.10;;
75038;SDS011;63609;49.992;14.512;2024-02-23T06:16:09;0.82;;;0.43;;
75038;SDS011;63609;49.992;14.512;2024-02-23T06:18:38;1.45;;;0.70;;
75038;SDS011;63609;49.992;14.512;2024-02-23T06:21:14;1.10;;;0.40;;
75038;SDS011;63609;49.992;14.512;2024-02-23T06:23:41;0.20;;;0.20;;
75038;SDS011;63609;49.992;14.512;2024-02-23T06:26:08;1.20;;;0.30;;
75038;SDS011;63609;49.992;14.512;2024-02-23T06:28:36;0.63;;;0.35;;
75038;SDS011;63609;49.992;14.512;2024-02-23T06:31:05;0.82;;;0.25;;
75038;SDS011;63609;49.992;14.512;2024-02-23T06:33:32;1.52;;;0.55;;
75038;SDS011;63609;49.992;14.512;2024-02-23T06:35:59;0.85;;;0.50;;
75038;SDS011;63609;49.992;14.512;2024-02-23T06:38:27;0.60;;;0.30;;
75038;SDS011;63609;49.992;14.512;2024-02-23T06:40:54;1.50;;;0.30;;
75038;SDS011;63609;49.992;14.512;2024-02-23T06:43:22;0.55;;;0.28;;
75038;SDS011;63609;49.992;14.512;2024-02-23T06:45:49;0.88;;;0.32;;
75038;SDS011;63609;49.992;14.512;2024-02-23T06:48:17;0.40;;;0.22;;
75038;SDS011;63609;49.992;14.512;2024-02-23T06:50:45;0.40;;;0.10;;
75038;SDS011;63609;49.992;14.512;2024-02-23T06:53:12;0.30;;;0.20;;
75038;SDS011;63609;49.992;14.512;2024-02-23T06:55:39;0.50;;;0.28;;
75038;SDS011;63609;49.992;14.512;2024-02-23T06:58:06;0.73;;;0.40;;
75038;SDS011;63609;49.992;14.512;2024-02-23T07:00:34;0.88;;;0.40;;
75038;SDS011;63609;49.992;14.512;2024-02-23T07:03:01;1.95;;;0.47;;
75038;SDS011;63609;49.992;14.512;2024-02-23T07:05:32;0.70;;;0.30;;
75038;SDS011;63609;49.992;14.512;2024-02-23T07:07:59;0.93;;;0.43;;
75038;SDS011;63609;49.992;14.512;2024-02-23T07:10:27;1.77;;;0.65;;
75038;SDS011;63609;49.992;14.512;2024-02-23T07:12:54;2.22;;;0.43;;
75038;SDS011;63609;49.992;14.512;2024-02-23T07:15:23;1.23;;;0.20;;
75038;SDS011;63609;49.992;14.512;2024-02-23T07:17:52;1.92;;;0.68;;
75038;SDS011;63609;49.992;14.512;2024-02-23T07:20:19;1.00;;;0.30;;
75038;SDS011;63609;49.992;14.512;2024-02-23T07:22:46;1.67;;;0.50;;
75038;SDS011;63609;49.992;14.512;2024-02-23T07:25:16;2.40;;;0.38;;
75038;SDS011;63609;49.992;14.512;2024-02-23T07:27:44;0.52;;;0.30;;
75038;SDS011;63609;49.992;14.512;2024-02-23T07:30:11;0.52;;;0.35;;
75038;SDS011;63609;49.992;14.512;2024-02-23T07:32:39;0.35;;;0.30;;
75038;SDS011;63609;49.992;14.512;2024-02-23T07:35:07;4.18;;;1.00;;
75038;SDS011;63609;49.992;14.512;2024-02-23T07:37:35;0.73;;;0.40;;
75038;SDS011;63609;49.992;14.512;2024-02-23T07:40:03;0.63;;;0.50;;
75038;SDS011;63609;49.992;14.512;2024-02-23T07:42:31;0.40;;;0.25;;
75038;SDS011;63609;49.992;14.512;2024-02-23T07:44:58;0.47;;;0.15;;
75038;SDS011;63609;49.992;14.512;2024-02-23T07:47:25;0.88;;;0.40;;
75038;SDS011;63609;49.992;14.512;2024-02-23T07:49:54;1.77;;;0.30;;
75038;SDS011;63609;49.992;14.512;2024-02-23T07:54:53;0.70;;;0.70;;
75038;SDS011;63609;49.992;14.512;2024-02-23T07:57:21;2.78;;;0.45;;
75038;SDS011;63609;49.992;14.512;2024-02-23T07:59:48;0.77;;;0.40;;
75038;SDS011;63609;49.992;14.512;2024-02-23T08:04:42;3.20;;;0.40;;
75038;SDS011;63609;49.992;14.512;2024-02-23T08:07:09;3.15;;;0.60;;
75038;SDS011;63609;49.992;14.512;2024-02-23T08:09:36;0.50;;;0.22;;
75038;SDS011;63609;49.992;14.512;2024-02-23T08:12:04;1.60;;;0.40;;
75038;SDS011;63609;49.992;14.512;2024-02-23T08:14:31;1.08;;;0.40;;
75038;SDS011;63609;49.992;14.512;2024-02-23T08:16:59;1.73;;;0.50;;
75038;SDS011;63609;49.992;14.512;2024-02-23T08:19:27;0.93;;;0.50;;
75038;SDS011;63609;49.992;14.512;2024-02-23T08:24:20;1.13;;;0.47;;
75038;SDS011;63609;49.992;14.512;2024-02-23T08:26:47;0.82;;;0.40;;
75038;SDS011;63609;49.992;14.512;2024-02-23T08:29:14;2.40;;;0.73;;
75038;SDS011;63609;49.992;14.512;2024-02-23T08:31:41;0.68;;;0.40;;
75038;SDS011;63609;49.992;14.512;2024-02-23T08:34:09;1.15;;;0.73;;
75038;SDS011;63609;49.992;14.512;2024-02-23T08:36:36;3.03;;;0.50;;
75038;SDS011;63609;49.992;14.512;2024-02-23T08:39:03;0.85;;;0.50;;
75038;SDS011;63609;49.992;14.512;2024-02-23T08:41:29;0.85;;;0.50;;
75038;SDS011;63609;49.992;14.512;2024-02-23T08:43:56;0.80;;;0.35;;
75038;SDS011;63609;49.992;14.512;2024-02-23T08:46:24;2.10;;;0.30;;
75038;SDS011;63609;49.992;14.512;2024-02-23T08:48:51;0.55;;;0.35;;
75038;SDS011;63609;49.992;14.512;2024-02-23T08:51:18;0.52;;;0.38;;
75038;SDS011;63609;49.992;14.512;2024-02-23T08:56:12;0.75;;;0.43;;
75038;SDS011;63609;49.992;14.512;2024-02-23T08:58:39;0.80;;;0.50;;
75038;SDS011;63609;49.992;14.512;2024-02-23T09:01:06;0.90;;;0.50;;
75038;SDS011;63609;49.992;14.512;2024-02-23T09:03:34;1.70;;;0.50;;
75038;SDS011;63609;49.992;14.512;2024-02-23T09:06:01;1.05;;;0.57;;
75038;SDS011;63609;49.992;14.512;2024-02-23T09:08:28;1.42;;;0.70;;
75038;SDS011;63609;49.992;14.512;2024-02-23T09:10:55;1.73;;;0.40;;
75038;SDS011;63609;49.992;14.512;2024-02-23T09:13:22;0.88;;;0.40;;
75038;SDS011;63609;49.992;14.512;2024-02-23T09:15:49;2.05;;;0.80;;
75038;SDS011;63609;49.992;14.512;2024-02-23T09:18:16;2.05;;;1.10;;
75038;SDS011;63609;49.992;14.512;2024-02-23T09:20:46;0.63;;;0.40;;
75038;SDS011;63609;49.992;14.512;2024-02-23T09:23:14;3.45;;;0.70;;
75038;SDS011;63609;49.992;14.512;2024-02-23T09:25:40;1.77;;;0.60;;
75038;SDS011;63609;49.992;14.512;2024-02-23T09:28:10;1.67;;;0.30;;
75038;SDS011;63609;49.992;14.512;2024-02-23T09:30:38;0.77;;;0.40;;
75038;SDS011;63609;49.992;14.512;2024-02-23T09:33:05;0.47;;;0.28;;
75038;SDS011;63609;49.992;14.512;2024-02-23T09:35:32;0.77;;;0.43;;
75038;SDS011;63609;49.992;14.512;2024-02-23T09:37:59;2.72;;;0.45;;
75038;SDS011;63609;49.992;14.512;2024-02-23T09:40:26;1.10;;;0.40;;
75038;SDS011;63609;49.992;14.512;2024-02-23T09:42:57;1.70;;;1.00;;
75038;SDS011;63609;49.992;14.512;2024-02-23T09:45:28;1.33;;;0.52;;
75038;SDS011;63609;49.992;14.512;2024-02-23T09:47:56;1.23;;;0.52;;
75038;SDS011;63609;49.992;14.512;2024-02-23T09:50:26;2.40;;;0.60;;
75038;SDS011;63609;49.992;14.512;2024-02-23T09:52:56;0.75;;;0.40;;
75038;SDS011;63609;49.992;14.512;2024-02-23T09:55:25;0.95;;;0.40;;
75038;SDS011;63609;49.992;14.512;2024-02-23T09:57:54;1.20;;;0.52;;
75038;SDS011;63609;49.992;14.512;2024-02-23T10:00:24;1.98;;;0.40;;
75038;SDS011;63609;49.992;14.512;2024-02-23T10:02:52;0.98;;;0.40;;
75038;SDS011;63609;49.992;14.512;2024-02-23T10:05:25;1.67;;;0.60;;
75038;SDS011;63609;49.992;14.512;2024-02-23T10:08:04;0.55;;;0.40;;
75038;SDS011;63609;49.992;14.512;2024-02-23T10:10:34;1.60;;;0.70;;
75038;SDS011;63609;49.992;14.512;2024-02-23T10:13:05;0.93;;;0.52;;
75038;SDS011;63609;49.992;14.512;2024-02-23T10:15:31;1.02;;;0.38;;
75038;SDS011;63609;49.992;14.512;2024-02-23T10:17:59;1.77;;;0.52;;
75038;SDS011;63609;49.992;14.512;2024-02-23T10:20:26;1.33;;;0.40;;
75038;SDS011;63609;49.992;14.512;2024-02-23T10:22:53;1.13;;;0.45;;
75038;SDS011;63609;49.992;14.512;2024-02-23T10:25:20;0.90;;;0.40;;
75038;SDS011;63609;49.992;14.512;2024-02-23T10:27:48;0.90;;;0.40;;
75038;SDS011;63609;49.992;14.512;2024-02-23T10:30:15;0.60;;;0.30;;
75038;SDS011;63609;49.992;14.512;2024-02-23T10:32:42;0.75;;;0.40;;
75038;SDS011;63609;49.992;14.512;2024-02-23T10:35:13;0.73;;;0.30;;
75038;SDS011;63609;49.992;14.512;2024-02-23T10:37:42;1.33;;;0.65;;
75038;SDS011;63609;49.992;14.512;2024-02-23T10:40:14;0.73;;;0.28;;
75038;SDS011;63609;49.992;14.512;2024-02-23T10:42:46;1.83;;;0.65;;
75038;SDS011;63609;49.992;14.512;2024-02-23T10:45:21;2.53;;;0.52;;
75038;SDS011;63609;49.992;14.512;2024-02-23T10:47:48;2.50;;;0.60;;
75038;SDS011;63609;49.992;14.512;2024-02-23T10:50:17;0.95;;;0.40;;
75038;SDS011;63609;49.992;14.512;2024-02-23T10:52:46;0.73;;;0.50;;
75038;SDS011;63609;49.992;14.512;2024-02-23T10:55:14;0.98;;;0.50;;
75038;SDS011;63609;49.992;14.512;2024-02-23T10:57:41;2.53;;;0.65;;
75038;SDS011;63609;49.992;14.512;2024-02-23T11:00:08;3.72;;;0.63;;
75038;SDS011;63609;49.992;14.512;2024-02-23T11:02:40;1.25;;;0.50;;
75038;SDS011;63609;49.992;14.512;2024-02-23T11:05:12;2.33;;;0.70;;
75038;SDS011;63609;49.992;14.512;2024-02-23T11:07:42;0.95;;;0.70;;
75038;SDS011;63609;49.992;14.512;2024-02-23T11:10:12;2.15;;;0.65;;
75038;SDS011;63609;49.992;14.512;2024-02-23T11:12:40;0.98;;;0.63;;
75038;SDS011;63609;49.992;14.512;2024-02-23T11:15:07;1.40;;;0.50;;
75038;SDS011;63609;49.992;14.512;2024-02-23T11:17:37;1.23;;;0.50;;
75038;SDS011;63609;49.992;14.512;2024-02-23T11:20:05;0.98;;;0.45;;
75038;SDS011;63609;49.992;14.512;2024-02-23T11:22:33;1.38;;;0.73;;
75038;SDS011;63609;49.992;14.512;2024-02-23T11:25:06;1.15;;;0.50;;
75038;SDS011;63609;49.992;14.512;2024-02-23T11:27:38;1.13;;;0.30;;
75038;SDS011;63609;49.992;14.512;2024-02-23T11:30:11;1.13;;;0.32;;
75038;SDS011;63609;49.992;14.512;2024-02-23T11:32:44;3.08;;;0.70;;
75038;SDS011;63609;49.992;14.512;2024-02-23T11:35:15;1.88;;;0.70;;
75038;SDS011;63609;49.992;14.512;2024-02-23T11:40:31;2.30;;;0.70;;
75038;SDS011;63609;49.992;14.512;2024-02-23T11:42:58;2.30;;;0.63;;
75038;SDS011;63609;49.992;14.512;2024-02-23T11:45:29;1.45;;;0.60;;
75038;SDS011;63609;49.992;14.512;2024-02-23T11:47:58;1.45;;;0.80;;
75038;SDS011;63609;49.992;14.512;2024-02-23T11:50:26;1.20;;;0.47;;
75038;SDS011;63609;49.992;14.512;2024-02-23T11:52:53;2.97;;;0.80;;
75038;SDS011;63609;49.992;14.512;2024-02-23T11:55:21;3.08;;;0.68;;
75038;SDS011;63609;49.992;14.512;2024-02-23T11:57:51;3.10;;;0.90;;
75038;SDS011;63609;49.992;14.512;2024-02-23T12:00:31;2.65;;;0.70;;
75038;SDS011;63609;49.992;14.512;2024-02-23T12:02:58;5.50;;;0.80;;
75038;SDS011;63609;49.992;14.512;2024-02-23T12:05:26;1.73;;;0.80;;
75038;SDS011;63609;49.992;14.512;2024-02-23T12:07:53;2.13;;;1.02;;
75038;SDS011;63609;49.992;14.512;2024-02-23T12:10:21;1.30;;;0.65;;
75038;SDS011;63609;49.992;14.512;2024-02-23T12:12:49;2.45;;;0.63;;
75038;SDS011;63609;49.992;14.512;2024-02-23T12:15:16;1.20;;;0.73;;
75038;SDS011;63609;49.992;14.512;2024-02-23T12:17:46;2.20;;;0.63;;
75038;SDS011;63609;49.992;14.512;2024-02-23T12:20:14;3.05;;;0.88;;
75038;SDS011;63609;49.992;14.512;2024-02-23T12:22:42;3.28;;;0.80;;
75038;SDS011;63609;49.992;14.512;2024-02-23T12:25:13;2.00;;;0.85;;
75038;SDS011;63609;49.992;14.512;2024-02-23T12:27:40;1.83;;;0.60;;
75038;SDS011;63609;49.992;14.512;2024-02-23T12:30:16;2.60;;;0.70;;
75038;SDS011;63609;49.992;14.512;2024-02-23T12:32:44;2.75;;;0.90;;
75038;SDS011;63609;49.992;14.512;2024-02-23T12:35:13;1.83;;;0.70;;
75038;SDS011;63609;49.992;14.512;2024-02-23T12:37:41;1.98;;;0.80;;
75038;SDS011;63609;49.992;14.512;2024-02-23T12:40:10;2.17;;;0.82;;
75038;SDS011;63609;49.992;14.512;2024-02-23T12:42:38;3.42;;;0.70;;
75038;SDS011;63609;49.992;14.512;2024-02-23T12:45:06;4.70;;;0.93;;
75038;SDS011;63609;49.992;14.512;2024-02-23T12:47:33;4.85;;;0.80;;
75038;SDS011;63609;49.992;14.512;2024-02-23T12:50:00;2.92;;;1.10;;
75038;SDS011;63609;49.992;14.512;2024-02-23T12:52:27;3.53;;;1.23;;
75038;SDS011;63609;49.992;14.512;2024-02-23T12:54:56;2.00;;;0.85;;
75038;SDS011;63609;49.992;14.512;2024-02-23T12:57:22;3.13;;;1.02;;
75038;SDS011;63609;49.992;14.512;2024-02-23T12:59:49;4.75;;;0.80;;
75038;SDS011;63609;49.992;14.512;2024-02-23T13:02:16;3.05;;;0.85;;
75038;SDS011;63609;49.992;14.512;2024-02-23T13:04:44;2.88;;;0.80;;
75038;SDS011;63609;49.992;14.512;2024-02-23T13:07:17;4.78;;;1.02;;
75038;SDS011;63609;49.992;14.512;2024-02-23T13:09:46;3.13;;;1.30;;
75038;SDS011;63609;49.992;14.512;2024-02-23T13:12:13;2.75;;;0.60;;
75038;SDS011;63609;49.992;14.512;2024-02-23T13:14:41;3.60;;;0.88;;
75038;SDS011;63609;49.992;14.512;2024-02-23T13:17:13;2.80;;;0.90;;
75038;SDS011;63609;49.992;14.512;2024-02-23T13:19:40;4.88;;;1.48;;
75038;SDS011;63609;49.992;14.512;2024-02-23T13:22:09;4.82;;;1.02;;
75038;SDS011;63609;49.992;14.512;2024-02-23T13:24:36;2.83;;;1.23;;
75038;SDS011;63609;49.992;14.512;2024-02-23T13:27:03;2.63;;;0.90;;
75038;SDS011;63609;49.992;14.512;2024-02-23T13:29:30;3.13;;;1.67;;
75038;SDS011;63609;49.992;14.512;2024-02-23T13:31:57;4.25;;;1.40;;
75038;SDS011;63609;49.992;14.512;2024-02-23T13:34:24;4.82;;;1.33;;
75038;SDS011;63609;49.992;14.512;2024-02-23T13:36:51;3.78;;;0.90;;
75038;SDS011;63609;49.992;14.512;2024-02-23T13:39:21;2.72;;;1.05;;
75038;SDS011;63609;49.992;14.512;2024-02-23T13:41:48;2.47;;;1.27;;
75038;SDS011;63609;49.992;14.512;2024-02-23T13:44:15;4.30;;;1.30;;
75038;SDS011;63609;49.992;14.512;2024-02-23T13:46:42;4.63;;;1.05;;
75038;SDS011;63609;49.992;14.512;2024-02-23T13:49:09;4.18;;;1.10;;
75038;SDS011;63609;49.992;14.512;2024-02-23T13:51:36;1.92;;;0.80;;
75038;SDS011;63609;49.992;14.512;2024-02-23T13:54:04;3.08;;;1.02;;
75038;SDS011;63609;49.992;14.512;2024-02-23T13:56:31;2.45;;;0.90;;
75038;SDS011;63609;49.992;14.512;2024-02-23T13:58:58;2.40;;;1.00;;
75038;SDS011;63609;49.992;14.512;2024-02-23T14:01:25;3.60;;;0.90;;
75038;SDS011;63609;49.992;14.512;2024-02-23T14:03:53;3.00;;;0.82;;
75038;SDS011;63609;49.992;14.512;2024-02-23T14:06:20;2.35;;;1.00;;
75038;SDS011;63609;49.992;14.512;2024-02-23T14:08:46;1.90;;;0.70;;
75038;SDS011;63609;49.992;14.512;2024-02-23T14:11:14;3.53;;;0.82;;
75038;SDS011;63609;49.992;14.512;2024-02-23T14:13:41;5.55;;;1.25;;
75038;SDS011;63609;49.992;14.512;2024-02-23T14:16:09;2.15;;;0.90;;
75038;SDS011;63609;49.992;14.512;2024-02-23T14:18:37;2.75;;;0.88;;
75038;SDS011;63609;49.992;14.512;2024-02-23T14:21:05;2.78;;;1.13;;
75038;SDS011;63609;49.992;14.512;2024-02-23T14:23:32;2.17;;;0.90;;
75038;SDS011;63609;49.992;14.512;2024-02-23T14:26:00;3.85;;;0.90;;
75038;SDS011;63609;49.992;14.512;2024-02-23T14:28:27;2.75;;;1.13;;
75038;SDS011;63609;49.992;14.512;2024-02-23T14:30:54;2.95;;;1.30;;
75038;SDS011;63609;49.992;14.512;2024-02-23T14:33:21;4.00;;;1.23;;
75038;SDS011;63609;49.992;14.512;2024-02-23T14:35:48;1.98;;;0.73;;
75038;SDS011;63609;49.992;14.512;2024-02-23T14:38:16;2.60;;;0.80;;
75038;SDS011;63609;49.992;14.512;2024-02-23T14:40:44;5.40;;;1.00;;
75038;SDS011;63609;49.992;14.512;2024-02-23T14:43:11;1.63;;;0.55;;
75038;SDS011;63609;49.992;14.512;2024-02-23T14:45:38;1.65;;;0.68;;
75038;SDS011;63609;49.992;14.512;2024-02-23T14:48:05;4.30;;;0.80;;
75038;SDS011;63609;49.992;14.512;2024-02-23T14:50:32;1.25;;;0.68;;
75038;SDS011;63609;49.992;14.512;2024-02-23T14:52:59;2.08;;;0.60;;
75038;SDS011;63609;49.992;14.512;2024-02-23T14:55:26;1.88;;;0.60;;
75038;SDS011;63609;49.992;14.512;2024-02-23T14:57:53;1.05;;;0.65;;
75038;SDS011;63609;49.992;14.512;2024-02-23T15:00:20;1.40;;;0.70;;